Terminal Aerodrome Forecast
Issued by NWS Bismarck, ND

Home | Current Version | Previous Version | Graphics & Text | Print | Product List | Glossary On
Versions: 1 2 3 4 5 6 7 8 9 10 11 12 13 14
378
FTUS43 KBIS 301720
TAFBIS
TAF
KBIS 301720Z 3018/0118 07014G24KT P6SM FEW050
     FM010100 05011KT P6SM FEW250=

USA.gov is the U.S. government's official web portal to all federal, state and local government web resources and services.